createdAt,value
2023-04-06T00:00:02.330Z,1014.3
2023-04-06T00:15:02.778Z,1014.0
2023-04-06T00:30:02.179Z,1014.0
2023-04-06T00:45:02.730Z,1013.9
2023-04-06T01:00:02.106Z,1013.8
2023-04-06T01:15:02.530Z,1013.6
2023-04-06T01:30:03.117Z,1013.3
2023-04-06T01:45:02.396Z,1013.5
2023-04-06T02:00:02.857Z,1013.3
2023-04-06T02:15:02.274Z,1013.2
2023-04-06T02:30:02.695Z,1013.1
2023-04-06T02:45:03.157Z,1013.2
2023-04-06T03:00:02.591Z,1013.0
2023-04-06T03:15:03.143Z,1013.0
2023-04-06T03:30:02.473Z,1012.9
2023-04-06T03:45:03.129Z,1013.0
2023-04-06T04:00:02.309Z,1012.9
2023-04-06T04:15:02.793Z,1012.8
2023-04-06T04:30:02.209Z,1012.9
2023-04-06T04:45:02.645Z,1013.1
2023-04-06T05:00:03.155Z,1012.9
2023-04-06T05:15:02.521Z,1012.9
2023-04-06T05:30:03.190Z,1013.0
2023-04-06T05:45:02.425Z,1012.9
2023-04-06T06:00:02.846Z,1013.0
2023-04-06T06:15:02.492Z,1012.9
2023-04-06T06:30:02.713Z,1012.7
2023-04-06T06:45:03.166Z,1012.8
2023-04-06T07:00:02.741Z,1012.7
2023-04-06T07:15:02.187Z,1012.7
2023-04-06T07:30:02.481Z,1012.7
2023-04-06T07:45:02.915Z,1012.7
2023-04-06T08:00:02.334Z,1012.6
2023-04-06T08:15:02.771Z,1012.5
2023-04-06T08:30:02.228Z,1012.4
2023-04-06T08:45:02.673Z,1012.4
2023-04-06T09:00:03.195Z,1012.1
2023-04-06T09:15:02.539Z,1012.3
2023-04-06T09:30:03.230Z,1012.2
2023-04-06T09:45:02.429Z,1011.9
2023-04-06T10:00:02.842Z,1012.0
2023-04-06T10:15:02.275Z,1012.1
2023-04-06T10:30:02.715Z,1011.9
2023-04-06T10:45:03.223Z,1011.9
2023-04-06T11:00:02.569Z,1011.8
2023-04-06T11:15:03.221Z,1011.7
2023-04-06T11:30:02.459Z,1011.6
2023-04-06T11:45:02.922Z,1011.5
2023-04-06T12:00:02.356Z,1011.4
2023-04-06T12:15:02.801Z,1011.3
2023-04-06T12:30:02.248Z,1011.3
2023-04-06T12:45:02.667Z,1011.3
2023-04-06T13:00:03.357Z,1011.3
2023-04-06T13:15:02.580Z,1011.0
2023-04-06T13:30:03.198Z,1011.0
2023-04-06T13:45:02.418Z,1010.7
2023-04-06T14:00:05.148Z,1010.8
2023-04-06T14:15:03.307Z,1011.0
2023-04-06T14:30:02.718Z,1010.7
2023-04-06T14:45:03.288Z,1010.6
2023-04-06T15:00:02.599Z,1010.6
2023-04-06T15:15:03.251Z,1010.4
2023-04-06T15:30:02.448Z,1010.4
2023-04-06T15:45:02.890Z,1010.2
2023-04-06T16:00:02.441Z,1010.3
2023-04-06T16:15:02.802Z,1010.3
2023-04-06T16:45:02.667Z,1010.3
2023-04-06T17:00:03.275Z,1010.3
2023-04-06T17:15:02.531Z,1010.4
2023-04-06T17:30:03.008Z,1010.5
2023-04-06T17:45:02.405Z,1010.6
2023-04-06T18:00:02.858Z,1010.6
2023-04-06T18:15:02.294Z,1010.8
2023-04-06T18:30:02.719Z,1010.9
2023-04-06T18:45:03.290Z,1011.1
2023-04-06T19:00:02.598Z,1011.2
2023-04-06T19:15:03.044Z,1011.3
2023-04-06T19:30:02.479Z,1011.3
2023-04-06T19:45:02.927Z,1011.3
2023-04-06T20:00:02.380Z,1011.3
2023-04-06T20:15:02.785Z,1011.3
2023-04-06T20:30:02.313Z,1011.3
2023-04-06T20:45:02.670Z,1011.3
2023-04-06T21:00:03.326Z,1011.1
2023-04-06T21:15:02.534Z,1011.1
2023-04-06T21:30:02.961Z,1011.0
2023-04-06T21:45:02.424Z,1010.9
2023-04-06T22:00:02.829Z,1010.5
2023-04-06T22:15:02.358Z,1010.7
2023-04-06T22:30:02.684Z,1010.7
2023-04-06T22:45:03.349Z,1010.6
2023-04-06T23:00:02.548Z,1010.7
2023-04-06T23:15:03.003Z,1010.4
2023-04-06T23:30:02.435Z,1010.4
2023-04-06T23:45:02.866Z,1010.4
